sensor_id;sensor_type;location;lat;lon;timestamp;pressure;altitude;pressure_sealevel;temperature;humidity
13593;BME280;6867;50.998;4.250;2023-08-24T00:00:14;101521.44;;;20.19;88.18
13593;BME280;6867;50.998;4.250;2023-08-24T00:02:41;101519.56;;;20.25;87.60
13593;BME280;6867;50.998;4.250;2023-08-24T00:05:07;101514.69;;;20.27;87.64
13593;BME280;6867;50.998;4.250;2023-08-24T00:07:34;101503.47;;;20.23;87.92
13593;BME280;6867;50.998;4.250;2023-08-24T00:10:02;101497.00;;;20.29;87.76
13593;BME280;6867;50.998;4.250;2023-08-24T00:12:29;101479.22;;;20.27;87.48
13593;BME280;6867;50.998;4.250;2023-08-24T00:14:56;101467.03;;;20.34;87.28
13593;BME280;6867;50.998;4.250;2023-08-24T00:17:23;101467.66;;;20.42;87.03
13593;BME280;6867;50.998;4.250;2023-08-24T00:19:50;101470.38;;;20.42;86.40
13593;BME280;6867;50.998;4.250;2023-08-24T00:22:16;101477.53;;;20.48;86.18
13593;BME280;6867;50.998;4.250;2023-08-24T00:24:43;101479.72;;;20.46;86.01
13593;BME280;6867;50.998;4.250;2023-08-24T00:27:11;101480.06;;;20.49;86.15
13593;BME280;6867;50.998;4.250;2023-08-24T00:29:39;101493.63;;;20.44;86.07
13593;BME280;6867;50.998;4.250;2023-08-24T00:32:05;101478.91;;;20.45;86.14
13593;BME280;6867;50.998;4.250;2023-08-24T00:34:33;101481.84;;;20.44;85.77
13593;BME280;6867;50.998;4.250;2023-08-24T00:37:00;101483.75;;;20.43;86.03
13593;BME280;6867;50.998;4.250;2023-08-24T00:39:26;101482.13;;;20.42;86.43
13593;BME280;6867;50.998;4.250;2023-08-24T00:41:53;101479.97;;;20.44;86.32
13593;BME280;6867;50.998;4.250;2023-08-24T00:44:22;101480.88;;;20.50;86.40
13593;BME280;6867;50.998;4.250;2023-08-24T00:46:49;101474.34;;;20.51;86.29
13593;BME280;6867;50.998;4.250;2023-08-24T00:49:16;101471.34;;;20.52;85.85
13593;BME280;6867;50.998;4.250;2023-08-24T00:51:42;101468.41;;;20.59;86.15
13593;BME280;6867;50.998;4.250;2023-08-24T00:54:10;101477.78;;;20.68;85.79
13593;BME280;6867;50.998;4.250;2023-08-24T00:56:37;101497.16;;;20.67;85.96
13593;BME280;6867;50.998;4.250;2023-08-24T00:59:03;101506.22;;;20.72;85.66
13593;BME280;6867;50.998;4.250;2023-08-24T01:01:31;101509.09;;;20.87;85.01
13593;BME280;6867;50.998;4.250;2023-08-24T01:03:58;101502.09;;;20.97;84.77
13593;BME280;6867;50.998;4.250;2023-08-24T01:06:25;101501.69;;;21.15;83.53
13593;BME280;6867;50.998;4.250;2023-08-24T01:08:52;101509.03;;;21.09;83.79
13593;BME280;6867;50.998;4.250;2023-08-24T01:11:25;101507.28;;;20.98;84.23
13593;BME280;6867;50.998;4.250;2023-08-24T01:14:01;101490.16;;;21.08;84.12
13593;BME280;6867;50.998;4.250;2023-08-24T01:16:33;101497.34;;;21.19;83.52
13593;BME280;6867;50.998;4.250;2023-08-24T01:19:07;101495.38;;;21.09;83.47
13593;BME280;6867;50.998;4.250;2023-08-24T01:21:38;101485.69;;;20.97;83.82
13593;BME280;6867;50.998;4.250;2023-08-24T01:24:12;101487.03;;;20.94;84.66
13593;BME280;6867;50.998;4.250;2023-08-24T01:26:42;101488.22;;;21.03;83.95
13593;BME280;6867;50.998;4.250;2023-08-24T01:29:10;101497.31;;;21.14;83.38
13593;BME280;6867;50.998;4.250;2023-08-24T01:31:37;101492.91;;;21.08;83.36
13593;BME280;6867;50.998;4.250;2023-08-24T01:34:04;101488.88;;;21.16;83.30
13593;BME280;6867;50.998;4.250;2023-08-24T01:36:30;101489.16;;;21.19;82.96
13593;BME280;6867;50.998;4.250;2023-08-24T01:39:02;101479.06;;;21.20;83.11
13593;BME280;6867;50.998;4.250;2023-08-24T01:41:36;101478.19;;;21.14;83.53
13593;BME280;6867;50.998;4.250;2023-08-24T01:44:06;101470.03;;;21.19;83.21
13593;BME280;6867;50.998;4.250;2023-08-24T01:46:36;101483.69;;;21.19;83.37
13593;BME280;6867;50.998;4.250;2023-08-24T01:49:04;101466.78;;;21.22;83.35
13593;BME280;6867;50.998;4.250;2023-08-24T01:51:33;101440.53;;;21.16;83.36
13593;BME280;6867;50.998;4.250;2023-08-24T01:54:01;101443.09;;;20.96;84.45
13593;BME280;6867;50.998;4.250;2023-08-24T01:56:28;101433.09;;;20.74;86.21
13593;BME280;6867;50.998;4.250;2023-08-24T01:58:55;101425.00;;;20.35;88.43
13593;BME280;6867;50.998;4.250;2023-08-24T02:01:23;101422.50;;;20.29;90.30
13593;BME280;6867;50.998;4.250;2023-08-24T02:03:50;101408.75;;;20.19;91.94
13593;BME280;6867;50.998;4.250;2023-08-24T02:06:17;101404.00;;;20.09;93.37
13593;BME280;6867;50.998;4.250;2023-08-24T02:08:44;101377.09;;;19.90;95.12
13593;BME280;6867;50.998;4.250;2023-08-24T02:11:11;101373.53;;;19.68;96.85
13593;BME280;6867;50.998;4.250;2023-08-24T02:13:37;101365.16;;;19.53;97.77
13593;BME280;6867;50.998;4.250;2023-08-24T02:16:05;101359.38;;;19.49;98.89
13593;BME280;6867;50.998;4.250;2023-08-24T02:18:34;101347.00;;;19.41;99.31
13593;BME280;6867;50.998;4.250;2023-08-24T02:21:06;101349.56;;;19.48;100.00
13593;BME280;6867;50.998;4.250;2023-08-24T02:23:34;101349.84;;;19.52;100.00
13593;BME280;6867;50.998;4.250;2023-08-24T02:26:00;101353.34;;;19.47;100.00
13593;BME280;6867;50.998;4.250;2023-08-24T02:28:28;101342.28;;;19.54;100.00
13593;BME280;6867;50.998;4.250;2023-08-24T02:30:54;101333.19;;;19.65;99.98
13593;BME280;6867;50.998;4.250;2023-08-24T02:33:21;101331.16;;;19.60;100.00
13593;BME280;6867;50.998;4.250;2023-08-24T02:35:49;101325.66;;;19.55;100.00
13593;BME280;6867;50.998;4.250;2023-08-24T02:38:15;101324.34;;;19.58;100.00
13593;BME280;6867;50.998;4.250;2023-08-24T02:40:42;101327.97;;;19.63;100.00
13593;BME280;6867;50.998;4.250;2023-08-24T02:43:08;101330.13;;;19.61;100.00
13593;BME280;6867;50.998;4.250;2023-08-24T02:45:35;101334.81;;;19.66;100.00
13593;BME280;6867;50.998;4.250;2023-08-24T02:48:01;101326.78;;;19.59;100.00
13593;BME280;6867;50.998;4.250;2023-08-24T02:50:28;101325.91;;;19.54;100.00
13593;BME280;6867;50.998;4.250;2023-08-24T02:52:57;101319.09;;;19.73;100.00
13593;BME280;6867;50.998;4.250;2023-08-24T02:55:24;101307.56;;;19.66;100.00
13593;BME280;6867;50.998;4.250;2023-08-24T02:57:50;101305.16;;;19.70;100.00
13593;BME280;6867;50.998;4.250;2023-08-24T03:00:17;101298.63;;;19.71;99.41
13593;BME280;6867;50.998;4.250;2023-08-24T03:02:44;101300.06;;;19.56;99.62
13593;BME280;6867;50.998;4.250;2023-08-24T03:05:11;101291.72;;;19.63;99.35
13593;BME280;6867;50.998;4.250;2023-08-24T03:07:37;101297.38;;;19.39;99.44
13593;BME280;6867;50.998;4.250;2023-08-24T03:10:06;101298.41;;;19.55;99.97
13593;BME280;6867;50.998;4.250;2023-08-24T03:12:33;101287.56;;;19.38;99.44
13593;BME280;6867;50.998;4.250;2023-08-24T03:15:00;101287.06;;;19.41;99.47
13593;BME280;6867;50.998;4.250;2023-08-24T03:17:26;101284.63;;;19.40;99.63
13593;BME280;6867;50.998;4.250;2023-08-24T03:19:53;101279.66;;;19.37;100.00
13593;BME280;6867;50.998;4.250;2023-08-24T03:22:20;101272.50;;;19.31;99.99
13593;BME280;6867;50.998;4.250;2023-08-24T03:24:46;101276.13;;;19.36;100.00
13593;BME280;6867;50.998;4.250;2023-08-24T03:27:14;101256.47;;;19.34;99.94
13593;BME280;6867;50.998;4.250;2023-08-24T03:29:41;101258.88;;;19.31;99.99
13593;BME280;6867;50.998;4.250;2023-08-24T03:32:08;101258.66;;;19.32;99.64
13593;BME280;6867;50.998;4.250;2023-08-24T03:34:34;101259.66;;;19.26;100.00
13593;BME280;6867;50.998;4.250;2023-08-24T03:37:01;101254.56;;;19.35;100.00
13593;BME280;6867;50.998;4.250;2023-08-24T03:39:29;101257.13;;;19.41;99.83
13593;BME280;6867;50.998;4.250;2023-08-24T03:41:55;101252.69;;;19.35;99.77
13593;BME280;6867;50.998;4.250;2023-08-24T03:44:23;101261.38;;;19.32;99.36
13593;BME280;6867;50.998;4.250;2023-08-24T03:46:50;101256.16;;;19.31;99.16
13593;BME280;6867;50.998;4.250;2023-08-24T03:49:16;101252.69;;;19.13;99.13
13593;BME280;6867;50.998;4.250;2023-08-24T03:51:43;101251.91;;;18.96;99.64
13593;BME280;6867;50.998;4.250;2023-08-24T03:54:10;101246.28;;;19.03;100.00
13593;BME280;6867;50.998;4.250;2023-08-24T03:56:36;101258.25;;;19.02;100.00
13593;BME280;6867;50.998;4.250;2023-08-24T03:59:03;101266.28;;;18.91;100.00
13593;BME280;6867;50.998;4.250;2023-08-24T04:01:31;101261.47;;;18.99;100.00
13593;BME280;6867;50.998;4.250;2023-08-24T04:03:58;101253.97;;;18.89;100.00
13593;BME280;6867;50.998;4.250;2023-08-24T04:06:25;101259.44;;;18.89;100.00
13593;BME280;6867;50.998;4.250;2023-08-24T04:08:52;101245.81;;;18.89;99.83
13593;BME280;6867;50.998;4.250;2023-08-24T04:11:18;101237.41;;;18.90;100.00
13593;BME280;6867;50.998;4.250;2023-08-24T04:13:45;101237.09;;;18.87;99.99
13593;BME280;6867;50.998;4.250;2023-08-24T04:16:12;101223.53;;;18.70;100.00
13593;BME280;6867;50.998;4.250;2023-08-24T04:18:40;101227.41;;;18.74;100.00
13593;BME280;6867;50.998;4.250;2023-08-24T04:21:06;101235.06;;;18.77;100.00
13593;BME280;6867;50.998;4.250;2023-08-24T04:23:33;101248.09;;;18.75;100.00
13593;BME280;6867;50.998;4.250;2023-08-24T04:26:00;101247.25;;;18.75;100.00
13593;BME280;6867;50.998;4.250;2023-08-24T04:28:26;101258.53;;;18.66;100.00
13593;BME280;6867;50.998;4.250;2023-08-24T04:30:54;101250.78;;;18.58;100.00
13593;BME280;6867;50.998;4.250;2023-08-24T04:33:21;101257.97;;;18.64;100.00
13593;BME280;6867;50.998;4.250;2023-08-24T04:35:49;101262.91;;;18.67;100.00
13593;BME280;6867;50.998;4.250;2023-08-24T04:38:17;101261.63;;;18.70;100.00
13593;BME280;6867;50.998;4.250;2023-08-24T04:40:49;101259.56;;;18.77;100.00
13593;BME280;6867;50.998;4.250;2023-08-24T04:43:16;101266.56;;;18.73;100.00
13593;BME280;6867;50.998;4.250;2023-08-24T04:45:45;101274.16;;;18.71;99.94
13593;BME280;6867;50.998;4.250;2023-08-24T04:48:11;101276.59;;;18.73;100.00
13593;BME280;6867;50.998;4.250;2023-08-24T04:50:38;101273.88;;;18.73;100.00
13593;BME280;6867;50.998;4.250;2023-08-24T04:53:06;101267.53;;;18.67;100.00
13593;BME280;6867;50.998;4.250;2023-08-24T04:55:33;101261.13;;;18.56;100.00
13593;BME280;6867;50.998;4.250;2023-08-24T04:57:59;101270.00;;;18.52;100.00
13593;BME280;6867;50.998;4.250;2023-08-24T05:00:26;101271.59;;;18.48;100.00
13593;BME280;6867;50.998;4.250;2023-08-24T05:02:53;101270.53;;;18.49;100.00
13593;BME280;6867;50.998;4.250;2023-08-24T05:05:19;101256.66;;;18.50;100.00
13593;BME280;6867;50.998;4.250;2023-08-24T05:07:46;101246.03;;;18.49;100.00
13593;BME280;6867;50.998;4.250;2023-08-24T05:10:14;101238.94;;;18.64;100.00
13593;BME280;6867;50.998;4.250;2023-08-24T05:12:41;101246.25;;;18.64;100.00
13593;BME280;6867;50.998;4.250;2023-08-24T05:15:08;101247.59;;;18.78;100.00
13593;BME280;6867;50.998;4.250;2023-08-24T05:17:35;101251.94;;;18.79;100.00
13593;BME280;6867;50.998;4.250;2023-08-24T05:20:02;101247.97;;;18.87;100.00
13593;BME280;6867;50.998;4.250;2023-08-24T05:22:29;101239.06;;;18.91;100.00
13593;BME280;6867;50.998;4.250;2023-08-24T05:24:56;101231.91;;;18.85;100.00
13593;BME280;6867;50.998;4.250;2023-08-24T05:27:24;101243.75;;;18.96;100.00
13593;BME280;6867;50.998;4.250;2023-08-24T05:29:50;101229.97;;;19.03;100.00
13593;BME280;6867;50.998;4.250;2023-08-24T05:32:17;101233.88;;;19.12;100.00
13593;BME280;6867;50.998;4.250;2023-08-24T05:34:45;101222.53;;;19.20;100.00
13593;BME280;6867;50.998;4.250;2023-08-24T05:37:11;101231.41;;;19.32;100.00
13593;BME280;6867;50.998;4.250;2023-08-24T05:39:38;101222.84;;;19.46;100.00
13593;BME280;6867;50.998;4.250;2023-08-24T05:42:05;101228.38;;;19.56;99.57
13593;BME280;6867;50.998;4.250;2023-08-24T05:44:33;101217.69;;;19.71;98.92
13593;BME280;6867;50.998;4.250;2023-08-24T05:47:00;101215.00;;;19.76;98.55
13593;BME280;6867;50.998;4.250;2023-08-24T05:49:27;101210.97;;;19.84;98.50
13593;BME280;6867;50.998;4.250;2023-08-24T05:51:54;101207.16;;;19.85;97.94
13593;BME280;6867;50.998;4.250;2023-08-24T05:54:20;101202.28;;;19.87;97.43
13593;BME280;6867;50.998;4.250;2023-08-24T05:56:47;101199.44;;;20.04;97.29
13593;BME280;6867;50.998;4.250;2023-08-24T05:59:14;101196.22;;;20.12;96.80
13593;BME280;6867;50.998;4.250;2023-08-24T06:01:42;101203.44;;;20.28;96.77
13593;BME280;6867;50.998;4.250;2023-08-24T06:04:09;101200.56;;;20.45;96.32
13593;BME280;6867;50.998;4.250;2023-08-24T06:06:36;101206.09;;;20.55;95.71
13593;BME280;6867;50.998;4.250;2023-08-24T06:09:03;101191.16;;;20.68;95.50
13593;BME280;6867;50.998;4.250;2023-08-24T06:11:31;101198.81;;;20.71;94.44
13593;BME280;6867;50.998;4.250;2023-08-24T06:13:58;101187.19;;;20.86;94.25
13593;BME280;6867;50.998;4.250;2023-08-24T06:16:25;101176.31;;;21.01;94.04
13593;BME280;6867;50.998;4.250;2023-08-24T06:18:53;101195.78;;;21.20;93.82
13593;BME280;6867;50.998;4.250;2023-08-24T06:21:20;101206.22;;;21.44;92.73
13593;BME280;6867;50.998;4.250;2023-08-24T06:23:47;101212.03;;;21.62;91.51
13593;BME280;6867;50.998;4.250;2023-08-24T06:26:14;101215.88;;;21.77;90.97
13593;BME280;6867;50.998;4.250;2023-08-24T06:28:40;101220.00;;;22.05;90.05
13593;BME280;6867;50.998;4.250;2023-08-24T06:31:07;101205.75;;;22.44;88.36
13593;BME280;6867;50.998;4.250;2023-08-24T06:33:35;101203.28;;;22.52;86.70
13593;BME280;6867;50.998;4.250;2023-08-24T06:36:04;101213.94;;;22.64;85.46
13593;BME280;6867;50.998;4.250;2023-08-24T06:38:31;101227.03;;;22.77;84.97
13593;BME280;6867;50.998;4.250;2023-08-24T06:40:58;101218.00;;;22.92;83.95
13593;BME280;6867;50.998;4.250;2023-08-24T06:43:25;101208.91;;;23.02;82.91
13593;BME280;6867;50.998;4.250;2023-08-24T06:45:51;101208.25;;;23.25;82.73
13593;BME280;6867;50.998;4.250;2023-08-24T06:48:18;101202.72;;;23.35;82.05
13593;BME280;6867;50.998;4.250;2023-08-24T06:50:45;101209.34;;;23.74;81.26
13593;BME280;6867;50.998;4.250;2023-08-24T06:53:13;101210.31;;;23.93;79.99
13593;BME280;6867;50.998;4.250;2023-08-24T06:55:40;101201.19;;;24.03;78.57
13593;BME280;6867;50.998;4.250;2023-08-24T06:58:06;101196.72;;;24.12;77.62
13593;BME280;6867;50.998;4.250;2023-08-24T07:00:33;101197.13;;;24.58;76.54
13593;BME280;6867;50.998;4.250;2023-08-24T07:03:00;101199.69;;;24.74;74.97
13593;BME280;6867;50.998;4.250;2023-08-24T07:05:27;101188.34;;;24.80;73.88
13593;BME280;6867;50.998;4.250;2023-08-24T07:07:54;101194.53;;;24.91;74.52
13593;BME280;6867;50.998;4.250;2023-08-24T07:10:22;101200.25;;;25.19;73.52
13593;BME280;6867;50.998;4.250;2023-08-24T07:12:49;101197.53;;;25.38;72.91
13593;BME280;6867;50.998;4.250;2023-08-24T07:15:16;101198.13;;;25.34;72.05
13593;BME280;6867;50.998;4.250;2023-08-24T07:17:42;101203.31;;;25.36;71.94
13593;BME280;6867;50.998;4.250;2023-08-24T07:20:09;101207.25;;;25.49;71.79
13593;BME280;6867;50.998;4.250;2023-08-24T07:22:37;101206.59;;;25.57;71.80
13593;BME280;6867;50.998;4.250;2023-08-24T07:25:05;101214.25;;;25.60;71.70
13593;BME280;6867;50.998;4.250;2023-08-24T07:27:34;101207.78;;;25.51;71.82
13593;BME280;6867;50.998;4.250;2023-08-24T07:30:02;101211.44;;;25.46;71.79
13593;BME280;6867;50.998;4.250;2023-08-24T07:32:31;101211.81;;;25.58;71.80
13593;BME280;6867;50.998;4.250;2023-08-24T07:34:58;101208.16;;;25.44;71.88
13593;BME280;6867;50.998;4.250;2023-08-24T07:37:25;101210.69;;;25.59;71.78
13593;BME280;6867;50.998;4.250;2023-08-24T07:39:51;101202.22;;;25.56;71.59
13593;BME280;6867;50.998;4.250;2023-08-24T07:42:19;101206.97;;;25.50;71.96
13593;BME280;6867;50.998;4.250;2023-08-24T07:44:47;101207.25;;;25.49;72.41
13593;BME280;6867;50.998;4.250;2023-08-24T07:47:14;101204.88;;;25.23;72.97
13593;BME280;6867;50.998;4.250;2023-08-24T07:49:41;101210.09;;;25.25;72.84
13593;BME280;6867;50.998;4.250;2023-08-24T07:52:10;101210.16;;;24.96;73.78
13593;BME280;6867;50.998;4.250;2023-08-24T07:54:36;101219.66;;;25.08;73.97
13593;BME280;6867;50.998;4.250;2023-08-24T07:57:04;101218.53;;;25.28;73.89
13593;BME280;6867;50.998;4.250;2023-08-24T07:59:31;101219.88;;;25.31;74.40
13593;BME280;6867;50.998;4.250;2023-08-24T08:01:59;101201.03;;;25.43;73.97
13593;BME280;6867;50.998;4.250;2023-08-24T08:04:25;101198.50;;;25.47;73.82
13593;BME280;6867;50.998;4.250;2023-08-24T08:06:52;101184.84;;;25.42;73.69
13593;BME280;6867;50.998;4.250;2023-08-24T08:09:21;101186.47;;;25.43;73.30
13593;BME280;6867;50.998;4.250;2023-08-24T08:11:47;101175.53;;;25.38;73.40
13593;BME280;6867;50.998;4.250;2023-08-24T08:14:14;101162.16;;;25.07;73.63
13593;BME280;6867;50.998;4.250;2023-08-24T08:16:41;101166.16;;;25.20;74.51
13593;BME280;6867;50.998;4.250;2023-08-24T08:19:09;101169.00;;;25.33;74.67
13593;BME280;6867;50.998;4.250;2023-08-24T08:21:35;101166.44;;;25.37;74.57
13593;BME280;6867;50.998;4.250;2023-08-24T08:24:02;101161.06;;;25.08;74.77
13593;BME280;6867;50.998;4.250;2023-08-24T08:26:29;101167.13;;;25.29;74.44
13593;BME280;6867;50.998;4.250;2023-08-24T08:28:56;101170.84;;;25.19;75.05
13593;BME280;6867;50.998;4.250;2023-08-24T08:31:23;101171.66;;;25.20;75.51
13593;BME280;6867;50.998;4.250;2023-08-24T08:33:49;101182.88;;;24.99;76.59
13593;BME280;6867;50.998;4.250;2023-08-24T08:36:17;101179.91;;;25.20;76.54
13593;BME280;6867;50.998;4.250;2023-08-24T08:38:44;101163.53;;;25.28;75.87
13593;BME280;6867;50.998;4.250;2023-08-24T08:41:11;101164.59;;;25.32;75.96
13593;BME280;6867;50.998;4.250;2023-08-24T08:43:38;101163.69;;;25.37;75.68
13593;BME280;6867;50.998;4.250;2023-08-24T08:46:06;101162.38;;;25.34;76.06
13593;BME280;6867;50.998;4.250;2023-08-24T08:48:34;101167.50;;;25.41;76.20
13593;BME280;6867;50.998;4.250;2023-08-24T08:51:02;101163.91;;;25.41;76.04
13593;BME280;6867;50.998;4.250;2023-08-24T08:53:30;101155.63;;;25.46;75.46
13593;BME280;6867;50.998;4.250;2023-08-24T08:56:00;101151.13;;;25.50;75.67
13593;BME280;6867;50.998;4.250;2023-08-24T08:58:31;101145.16;;;25.62;75.23
13593;BME280;6867;50.998;4.250;2023-08-24T09:00:58;101157.44;;;25.69;75.20
13593;BME280;6867;50.998;4.250;2023-08-24T09:03:26;101158.56;;;25.68;75.22
13593;BME280;6867;50.998;4.250;2023-08-24T09:05:54;101172.22;;;25.73;75.18
13593;BME280;6867;50.998;4.250;2023-08-24T09:08:21;101179.34;;;25.42;75.55
13593;BME280;6867;50.998;4.250;2023-08-24T09:10:50;101182.41;;;25.54;75.26
13593;BME280;6867;50.998;4.250;2023-08-24T09:13:17;101190.31;;;25.61;74.81
13593;BME280;6867;50.998;4.250;2023-08-24T09:15:43;101202.38;;;25.46;75.27
13593;BME280;6867;50.998;4.250;2023-08-24T09:18:10;101214.31;;;25.36;75.69
13593;BME280;6867;50.998;4.250;2023-08-24T09:20:37;101231.78;;;25.26;76.17
13593;BME280;6867;50.998;4.250;2023-08-24T09:23:03;101249.00;;;25.08;76.58
13593;BME280;6867;50.998;4.250;2023-08-24T09:25:30;101263.50;;;24.66;77.54
13593;BME280;6867;50.998;4.250;2023-08-24T09:27:58;101276.13;;;24.38;79.85
13593;BME280;6867;50.998;4.250;2023-08-24T09:30:32;101305.00;;;23.85;81.77
13593;BME280;6867;50.998;4.250;2023-08-24T09:33:01;101349.78;;;23.76;83.31
13593;BME280;6867;50.998;4.250;2023-08-24T09:35:29;101373.81;;;23.24;84.78
13593;BME280;6867;50.998;4.250;2023-08-24T09:37:56;101380.63;;;23.32;85.90
13593;BME280;6867;50.998;4.250;2023-08-24T09:40:26;101386.72;;;22.83;88.47
13593;BME280;6867;50.998;4.250;2023-08-24T09:42:52;101362.88;;;22.88;88.51
13593;BME280;6867;50.998;4.250;2023-08-24T09:45:20;101364.00;;;22.82;89.75
13593;BME280;6867;50.998;4.250;2023-08-24T09:47:49;101348.66;;;22.56;90.29
13593;BME280;6867;50.998;4.250;2023-08-24T09:50:17;101343.16;;;22.61;90.80
13593;BME280;6867;50.998;4.250;2023-08-24T09:52:44;101321.00;;;22.68;nan
13593;BME280;6867;50.998;4.250;2023-08-24T09:55:16;101308.94;;;22.48;91.17
13593;BME280;6867;50.998;4.250;2023-08-24T09:57:44;101299.91;;;22.53;91.57
13593;BME280;6867;50.998;4.250;2023-08-24T10:00:13;101296.63;;;22.51;92.06
13593;BME280;6867;50.998;4.250;2023-08-24T10:02:48;101269.81;;;22.58;91.55
13593;BME280;6867;50.998;4.250;2023-08-24T10:05:17;101240.25;;;22.50;91.88
13593;BME280;6867;50.998;4.250;2023-08-24T10:07:49;101223.84;;;22.50;91.71
13593;BME280;6867;50.998;4.250;2023-08-24T10:10:19;101201.63;;;22.51;91.90
13593;BME280;6867;50.998;4.250;2023-08-24T10:12:47;101179.97;;;22.65;91.30
13593;BME280;6867;50.998;4.250;2023-08-24T10:15:17;101168.25;;;22.54;91.89
13593;BME280;6867;50.998;4.250;2023-08-24T10:17:46;101147.72;;;22.47;92.35
13593;BME280;6867;50.998;4.250;2023-08-24T10:20:14;101120.44;;;22.01;94.44
13593;BME280;6867;50.998;4.250;2023-08-24T10:22:42;101099.09;;;21.93;96.20
13593;BME280;6867;50.998;4.250;2023-08-24T10:25:09;101072.31;;;21.69;98.77
13593;BME280;6867;50.998;4.250;2023-08-24T10:27:36;101077.81;;;21.74;100.00
13593;BME280;6867;50.998;4.250;2023-08-24T10:30:10;101044.97;;;21.69;100.00
13593;BME280;6867;50.998;4.250;2023-08-24T10:32:39;101039.50;;;21.84;100.00
13593;BME280;6867;50.998;4.250;2023-08-24T10:35:08;101024.97;;;22.04;100.00
13593;BME280;6867;50.998;4.250;2023-08-24T10:37:34;100999.50;;;22.24;100.00
13593;BME280;6867;50.998;4.250;2023-08-24T10:40:01;100998.28;;;22.46;100.00
13593;BME280;6867;50.998;4.250;2023-08-24T10:42:43;100989.97;;;22.61;100.00
13593;BME280;6867;50.998;4.250;2023-08-24T10:45:10;100983.75;;;22.95;99.30
13593;BME280;6867;50.998;4.250;2023-08-24T10:47:44;100962.66;;;23.58;98.11
13593;BME280;6867;50.998;4.250;2023-08-24T10:50:13;100947.19;;;23.97;96.04
13593;BME280;6867;50.998;4.250;2023-08-24T10:52:43;100948.28;;;23.96;94.29
13593;BME280;6867;50.998;4.250;2023-08-24T10:55:25;100946.59;;;24.43;92.35
13593;BME280;6867;50.998;4.250;2023-08-24T10:57:55;100950.81;;;24.73;89.67
13593;BME280;6867;50.998;4.250;2023-08-24T11:00:25;100971.09;;;24.96;89.80
13593;BME280;6867;50.998;4.250;2023-08-24T11:02:53;100971.38;;;25.13;88.75
13593;BME280;6867;50.998;4.250;2023-08-24T11:05:22;100959.13;;;25.38;87.94
13593;BME280;6867;50.998;4.250;2023-08-24T11:07:51;100953.84;;;25.69;85.15
13593;BME280;6867;50.998;4.250;2023-08-24T11:10:19;100972.53;;;26.14;83.81
13593;BME280;6867;50.998;4.250;2023-08-24T11:13:06;100992.63;;;25.87;82.69
13593;BME280;6867;50.998;4.250;2023-08-24T11:15:34;101006.38;;;25.87;82.07
13593;BME280;6867;50.998;4.250;2023-08-24T11:18:20;100990.91;;;26.04;79.99
13593;BME280;6867;50.998;4.250;2023-08-24T11:20:50;101003.97;;;26.13;79.60
13593;BME280;6867;50.998;4.250;2023-08-24T11:23:17;101015.59;;;26.73;79.54
13593;BME280;6867;50.998;4.250;2023-08-24T11:25:45;101014.16;;;26.26;80.76
13593;BME280;6867;50.998;4.250;2023-08-24T11:28:16;101013.19;;;26.72;79.51
13593;BME280;6867;50.998;4.250;2023-08-24T11:30:44;101017.47;;;26.64;77.95
13593;BME280;6867;50.998;4.250;2023-08-24T11:33:11;101039.31;;;26.05;79.19
13593;BME280;6867;50.998;4.250;2023-08-24T11:35:40;101049.69;;;26.77;77.31
13593;BME280;6867;50.998;4.250;2023-08-24T11:38:08;101052.13;;;26.79;76.99
13593;BME280;6867;50.998;4.250;2023-08-24T11:40:35;101060.50;;;26.74;76.40
13593;BME280;6867;50.998;4.250;2023-08-24T11:43:02;101067.06;;;27.14;75.36
13593;BME280;6867;50.998;4.250;2023-08-24T11:45:30;101072.81;;;26.90;75.32
13593;BME280;6867;50.998;4.250;2023-08-24T11:47:58;101097.16;;;27.24;75.01
13593;BME280;6867;50.998;4.250;2023-08-24T11:50:25;101099.91;;;27.24;74.34
13593;BME280;6867;50.998;4.250;2023-08-24T11:52:53;101099.22;;;27.41;73.91
13593;BME280;6867;50.998;4.250;2023-08-24T11:55:22;101077.03;;;26.74;74.16
13593;BME280;6867;50.998;4.250;2023-08-24T11:57:49;101073.06;;;26.11;75.18
13593;BME280;6867;50.998;4.250;2023-08-24T12:00:16;101066.53;;;25.93;76.23
13593;BME280;6867;50.998;4.250;2023-08-24T12:02:43;101075.34;;;25.76;77.62
13593;BME280;6867;50.998;4.250;2023-08-24T12:05:20;101064.72;;;25.37;79.82
13593;BME280;6867;50.998;4.250;2023-08-24T12:07:47;101047.94;;;25.01;80.65
13593;BME280;6867;50.998;4.250;2023-08-24T12:10:14;101047.66;;;24.83;81.61
13593;BME280;6867;50.998;4.250;2023-08-24T12:12:42;101016.16;;;24.76;82.18
13593;BME280;6867;50.998;4.250;2023-08-24T12:15:15;101024.16;;;24.53;83.47
13593;BME280;6867;50.998;4.250;2023-08-24T12:17:42;101017.50;;;24.59;84.04
13593;BME280;6867;50.998;4.250;2023-08-24T12:20:17;101011.72;;;24.80;83.55
13593;BME280;6867;50.998;4.250;2023-08-24T12:22:44;101018.31;;;24.98;83.71
13593;BME280;6867;50.998;4.250;2023-08-24T12:25:16;101009.03;;;24.94;83.35
13593;BME280;6867;50.998;4.250;2023-08-24T12:27:44;101011.31;;;24.87;83.96
13593;BME280;6867;50.998;4.250;2023-08-24T12:30:11;101013.41;;;24.76;84.09
13593;BME280;6867;50.998;4.250;2023-08-24T12:32:42;101005.09;;;24.81;84.24
13593;BME280;6867;50.998;4.250;2023-08-24T12:35:09;101010.91;;;24.79;84.29
13593;BME280;6867;50.998;4.250;2023-08-24T12:37:36;101010.72;;;24.52;85.22
13593;BME280;6867;50.998;4.250;2023-08-24T12:40:03;101022.28;;;24.49;84.92
13593;BME280;6867;50.998;4.250;2023-08-24T12:42:31;101007.09;;;24.56;84.90
13593;BME280;6867;50.998;4.250;2023-08-24T12:44:59;101004.66;;;24.31;86.25
13593;BME280;6867;50.998;4.250;2023-08-24T12:47:25;100998.66;;;24.29;87.52
13593;BME280;6867;50.998;4.250;2023-08-24T12:49:52;100996.66;;;24.34;86.21
13593;BME280;6867;50.998;4.250;2023-08-24T12:52:22;100999.69;;;23.85;87.68
13593;BME280;6867;50.998;4.250;2023-08-24T12:54:48;101003.38;;;24.23;86.21
13593;BME280;6867;50.998;4.250;2023-08-24T12:57:15;100990.44;;;24.05;87.05
13593;BME280;6867;50.998;4.250;2023-08-24T12:59:42;100994.91;;;24.20;87.08